sensor_id;sensor_type;location;lat;lon;timestamp;pressure;altitude;pressure_sealevel;temperature;humidity
50682;BME280;36779;52.168;20.878;2023-02-01T00:00:13;99184.78;;;1.95;78.34
50682;BME280;36779;52.168;20.878;2023-02-01T00:03:02;99180.20;;;1.97;78.41
50682;BME280;36779;52.168;20.878;2023-02-01T00:05:31;99179.06;;;2.00;78.53
50682;BME280;36779;52.168;20.878;2023-02-01T00:08:00;99175.86;;;2.02;78.49
50682;BME280;36779;52.168;20.878;2023-02-01T00:10:29;99174.05;;;2.05;78.63
50682;BME280;36779;52.168;20.878;2023-02-01T00:12:58;99174.42;;;2.07;78.45
50682;BME280;36779;52.168;20.878;2023-02-01T00:15:29;99178.08;;;2.09;78.61
50682;BME280;36779;52.168;20.878;2023-02-01T00:17:58;99178.11;;;2.13;78.72
50682;BME280;36779;52.168;20.878;2023-02-01T00:20:31;99182.95;;;2.17;78.64
50682;BME280;36779;52.168;20.878;2023-02-01T00:23:01;99186.08;;;2.22;78.68
50682;BME280;36779;52.168;20.878;2023-02-01T00:25:31;99189.31;;;2.25;78.66
50682;BME280;36779;52.168;20.878;2023-02-01T00:28:00;99192.50;;;2.26;78.72
50682;BME280;36779;52.168;20.878;2023-02-01T00:30:29;99190.96;;;2.28;78.71
50682;BME280;36779;52.168;20.878;2023-02-01T00:32:58;99193.00;;;2.28;78.64
50682;BME280;36779;52.168;20.878;2023-02-01T00:35:27;99192.36;;;2.29;78.67
50682;BME280;36779;52.168;20.878;2023-02-01T00:37:56;99188.79;;;2.32;78.78
50682;BME280;36779;52.168;20.878;2023-02-01T00:40:28;99187.66;;;2.33;78.65
50682;BME280;36779;52.168;20.878;2023-02-01T00:42:57;99192.95;;;2.34;78.82
50682;BME280;36779;52.168;20.878;2023-02-01T00:45:27;99195.71;;;2.37;78.82
50682;BME280;36779;52.168;20.878;2023-02-01T00:47:56;99195.66;;;2.38;78.81
50682;BME280;36779;52.168;20.878;2023-02-01T00:50:25;99196.83;;;2.34;78.67
50682;BME280;36779;52.168;20.878;2023-02-01T00:52:57;99204.11;;;2.32;78.66
50682;BME280;36779;52.168;20.878;2023-02-01T00:55:27;99202.77;;;2.29;78.65
50682;BME280;36779;52.168;20.878;2023-02-01T00:57:57;99200.83;;;2.29;78.70
50682;BME280;36779;52.168;20.878;2023-02-01T01:00:27;99205.82;;;2.28;78.72
50682;BME280;36779;52.168;20.878;2023-02-01T01:02:56;99202.44;;;2.25;78.58
50682;BME280;36779;52.168;20.878;2023-02-01T01:05:25;99204.42;;;2.20;78.52
50682;BME280;36779;52.168;20.878;2023-02-01T01:07:56;99200.59;;;2.18;78.50
50682;BME280;36779;52.168;20.878;2023-02-01T01:10:26;99200.94;;;2.16;78.48
50682;BME280;36779;52.168;20.878;2023-02-01T01:12:55;99200.41;;;2.14;78.63
50682;BME280;36779;52.168;20.878;2023-02-01T01:15:24;99203.56;;;2.12;78.52
50682;BME280;36779;52.168;20.878;2023-02-01T01:17:56;99200.25;;;2.10;78.51
50682;BME280;36779;52.168;20.878;2023-02-01T01:20:25;99204.50;;;2.06;78.58
50682;BME280;36779;52.168;20.878;2023-02-01T01:22:55;99202.46;;;2.03;78.58
50682;BME280;36779;52.168;20.878;2023-02-01T01:25:24;99217.88;;;2.01;78.64
50682;BME280;36779;52.168;20.878;2023-02-01T01:27:55;99226.42;;;1.98;78.67
50682;BME280;36779;52.168;20.878;2023-02-01T01:30:24;99223.27;;;1.96;78.59
50682;BME280;36779;52.168;20.878;2023-02-01T01:32:54;99221.09;;;1.97;78.84
50682;BME280;36779;52.168;20.878;2023-02-01T01:35:23;99225.65;;;1.99;78.83
50682;BME280;36779;52.168;20.878;2023-02-01T01:37:52;99230.50;;;2.01;78.80
50682;BME280;36779;52.168;20.878;2023-02-01T01:40:24;99229.59;;;2.03;78.70
50682;BME280;36779;52.168;20.878;2023-02-01T01:42:55;99224.17;;;2.05;78.71
50682;BME280;36779;52.168;20.878;2023-02-01T01:45:29;99221.80;;;2.04;78.60
50682;BME280;36779;52.168;20.878;2023-02-01T01:48:00;99226.46;;;2.03;78.74
50682;BME280;36779;52.168;20.878;2023-02-01T01:50:40;99233.11;;;2.03;78.70
50682;BME280;36779;52.168;20.878;2023-02-01T01:53:12;99229.67;;;2.00;78.73
50682;BME280;36779;52.168;20.878;2023-02-01T01:55:44;99236.20;;;1.96;78.74
50682;BME280;36779;52.168;20.878;2023-02-01T01:58:19;99243.59;;;1.92;78.76
50682;BME280;36779;52.168;20.878;2023-02-01T02:00:49;99246.94;;;1.89;78.70
50682;BME280;36779;52.168;20.878;2023-02-01T02:03:20;99253.32;;;1.86;78.66
50682;BME280;36779;52.168;20.878;2023-02-01T02:05:50;99256.45;;;1.85;78.77
50682;BME280;36779;52.168;20.878;2023-02-01T02:08:21;99254.59;;;1.86;78.78
50682;BME280;36779;52.168;20.878;2023-02-01T02:10:52;99253.41;;;1.90;78.68
50682;BME280;36779;52.168;20.878;2023-02-01T02:13:31;99254.02;;;1.93;78.82
50682;BME280;36779;52.168;20.878;2023-02-01T02:16:19;99252.31;;;1.94;78.81
50682;BME280;36779;52.168;20.878;2023-02-01T02:19:08;99250.02;;;1.94;78.83
50682;BME280;36779;52.168;20.878;2023-02-01T02:21:51;99253.21;;;1.94;78.80
50682;BME280;36779;52.168;20.878;2023-02-01T02:24:43;99253.95;;;1.94;78.90
50682;BME280;36779;52.168;20.878;2023-02-01T02:27:23;99259.09;;;1.93;78.82
50682;BME280;36779;52.168;20.878;2023-02-01T02:36:23;99264.54;;;1.93;78.77
50682;BME280;36779;52.168;20.878;2023-02-01T02:39:05;99258.88;;;1.95;78.91
50682;BME280;36779;52.168;20.878;2023-02-01T02:41:45;99265.48;;;1.98;78.81
50682;BME280;36779;52.168;20.878;2023-02-01T02:44:42;99269.85;;;2.02;78.93
50682;BME280;36779;52.168;20.878;2023-02-01T02:47:37;99268.52;;;2.03;78.94
50682;BME280;36779;52.168;20.878;2023-02-01T02:50:23;99269.49;;;2.02;78.92
50682;BME280;36779;52.168;20.878;2023-02-01T02:53:15;99266.23;;;2.01;78.85
50682;BME280;36779;52.168;20.878;2023-02-01T02:56:07;99267.64;;;2.01;78.92
50682;BME280;36779;52.168;20.878;2023-02-01T02:58:57;99265.36;;;1.99;78.83
50682;BME280;36779;52.168;20.878;2023-02-01T03:01:46;99272.21;;;1.99;78.82
50682;BME280;36779;52.168;20.878;2023-02-01T03:04:34;99272.92;;;2.01;78.81
50682;BME280;36779;52.168;20.878;2023-02-01T03:07:13;99269.13;;;2.02;78.77
50682;BME280;36779;52.168;20.878;2023-02-01T03:09:45;99272.49;;;2.04;78.78
50682;BME280;36779;52.168;20.878;2023-02-01T03:12:16;99273.84;;;2.04;78.91
50682;BME280;36779;52.168;20.878;2023-02-01T03:15:08;99279.95;;;2.04;78.88
50682;BME280;36779;52.168;20.878;2023-02-01T03:17:43;99272.51;;;2.02;78.91
50682;BME280;36779;52.168;20.878;2023-02-01T03:20:15;99275.98;;;2.00;78.92
50682;BME280;36779;52.168;20.878;2023-02-01T03:22:49;99279.63;;;1.96;78.75
50682;BME280;36779;52.168;20.878;2023-02-01T03:25:25;99283.50;;;1.94;78.64
50682;BME280;36779;52.168;20.878;2023-02-01T03:27:59;99284.29;;;1.93;78.79
50682;BME280;36779;52.168;20.878;2023-02-01T03:30:34;99281.23;;;1.94;78.81
50682;BME280;36779;52.168;20.878;2023-02-01T03:33:10;99285.94;;;1.94;78.60
50682;BME280;36779;52.168;20.878;2023-02-01T03:35:57;99285.49;;;1.95;78.78
50682;BME280;36779;52.168;20.878;2023-02-01T03:38:31;99282.98;;;1.98;78.88
50682;BME280;36779;52.168;20.878;2023-02-01T03:41:07;99290.07;;;2.01;78.86
50682;BME280;36779;52.168;20.878;2023-02-01T03:43:45;99284.97;;;2.03;78.88
50682;BME280;36779;52.168;20.878;2023-02-01T03:46:25;99289.71;;;2.03;78.95
50682;BME280;36779;52.168;20.878;2023-02-01T03:48:56;99290.09;;;2.03;78.96
50682;BME280;36779;52.168;20.878;2023-02-01T03:51:27;99286.78;;;2.02;79.00
50682;BME280;36779;52.168;20.878;2023-02-01T03:54:02;99289.89;;;2.01;78.89
50682;BME280;36779;52.168;20.878;2023-02-01T03:56:33;99286.84;;;2.00;78.80
50682;BME280;36779;52.168;20.878;2023-02-01T03:59:08;99287.67;;;2.01;78.80
50682;BME280;36779;52.168;20.878;2023-02-01T04:01:37;99285.04;;;2.02;78.94
50682;BME280;36779;52.168;20.878;2023-02-01T04:04:06;99291.79;;;2.05;79.00
50682;BME280;36779;52.168;20.878;2023-02-01T04:06:35;99291.56;;;2.08;78.89
50682;BME280;36779;52.168;20.878;2023-02-01T04:09:04;99294.70;;;2.10;78.92
50682;BME280;36779;52.168;20.878;2023-02-01T04:11:34;99297.60;;;2.13;78.98
50682;BME280;36779;52.168;20.878;2023-02-01T04:14:03;99300.81;;;2.14;78.90
50682;BME280;36779;52.168;20.878;2023-02-01T04:16:32;99297.73;;;2.16;78.93
50682;BME280;36779;52.168;20.878;2023-02-01T04:19:07;99298.46;;;2.15;79.06
50682;BME280;36779;52.168;20.878;2023-02-01T04:21:35;99291.91;;;2.14;78.93
50682;BME280;36779;52.168;20.878;2023-02-01T04:24:06;99292.17;;;2.13;79.00
50682;BME280;36779;52.168;20.878;2023-02-01T04:26:35;99303.94;;;2.13;78.93
50682;BME280;36779;52.168;20.878;2023-02-01T04:29:04;99302.00;;;2.13;78.85
50682;BME280;36779;52.168;20.878;2023-02-01T04:31:32;99304.14;;;2.15;78.94
50682;BME280;36779;52.168;20.878;2023-02-01T04:34:03;99305.28;;;2.16;78.76
50682;BME280;36779;52.168;20.878;2023-02-01T04:36:32;99306.25;;;2.17;78.92
50682;BME280;36779;52.168;20.878;2023-02-01T04:39:01;99310.45;;;2.19;78.94
50682;BME280;36779;52.168;20.878;2023-02-01T04:41:30;99312.17;;;2.19;78.85
50682;BME280;36779;52.168;20.878;2023-02-01T04:43:59;99314.00;;;2.18;78.96
50682;BME280;36779;52.168;20.878;2023-02-01T04:46:29;99322.08;;;2.16;78.94
50682;BME280;36779;52.168;20.878;2023-02-01T04:49:00;99320.52;;;2.14;78.84
50682;BME280;36779;52.168;20.878;2023-02-01T04:51:30;99319.88;;;2.13;78.87
50682;BME280;36779;52.168;20.878;2023-02-01T04:54:00;99321.88;;;2.14;78.90
50682;BME280;36779;52.168;20.878;2023-02-01T04:56:29;99322.98;;;2.16;78.94
50682;BME280;36779;52.168;20.878;2023-02-01T04:58:58;99322.16;;;2.17;78.89
50682;BME280;36779;52.168;20.878;2023-02-01T05:01:30;99321.08;;;2.19;78.89
50682;BME280;36779;52.168;20.878;2023-02-01T05:04:00;99327.63;;;2.21;78.98
50682;BME280;36779;52.168;20.878;2023-02-01T05:06:29;99326.75;;;2.23;78.79
50682;BME280;36779;52.168;20.878;2023-02-01T05:08:59;99328.13;;;2.23;78.87
50682;BME280;36779;52.168;20.878;2023-02-01T05:11:31;99327.71;;;2.22;78.95
50682;BME280;36779;52.168;20.878;2023-02-01T05:14:18;99327.85;;;2.20;78.87
50682;BME280;36779;52.168;20.878;2023-02-01T05:16:50;99330.41;;;2.19;78.88
50682;BME280;36779;52.168;20.878;2023-02-01T05:19:19;99331.30;;;2.17;78.84
50682;BME280;36779;52.168;20.878;2023-02-01T05:21:48;99330.77;;;2.17;78.90
50682;BME280;36779;52.168;20.878;2023-02-01T05:24:18;99328.36;;;2.18;78.91
50682;BME280;36779;52.168;20.878;2023-02-01T05:26:49;99324.05;;;2.19;78.81
50682;BME280;36779;52.168;20.878;2023-02-01T05:29:19;99320.23;;;2.21;78.83
50682;BME280;36779;52.168;20.878;2023-02-01T05:31:49;99321.70;;;2.22;78.76
50682;BME280;36779;52.168;20.878;2023-02-01T05:34:18;99313.65;;;2.22;78.80
50682;BME280;36779;52.168;20.878;2023-02-01T05:36:49;99312.95;;;2.20;78.87
50682;BME280;36779;52.168;20.878;2023-02-01T05:39:18;99313.02;;;2.18;78.81
50682;BME280;36779;52.168;20.878;2023-02-01T05:41:46;99312.34;;;2.15;78.85
50682;BME280;36779;52.168;20.878;2023-02-01T05:44:16;99311.64;;;2.13;78.72
50682;BME280;36779;52.168;20.878;2023-02-01T05:46:45;99305.27;;;2.10;78.63
50682;BME280;36779;52.168;20.878;2023-02-01T05:49:17;99313.86;;;2.07;78.69
50682;BME280;36779;52.168;20.878;2023-02-01T05:51:47;99320.97;;;2.06;78.68
50682;BME280;36779;52.168;20.878;2023-02-01T05:54:16;99324.84;;;2.06;78.66
50682;BME280;36779;52.168;20.878;2023-02-01T05:56:48;99321.71;;;2.06;78.72
50682;BME280;36779;52.168;20.878;2023-02-01T05:59:18;99321.29;;;2.07;78.88
50682;BME280;36779;52.168;20.878;2023-02-01T06:01:47;99319.06;;;2.06;78.79
50682;BME280;36779;52.168;20.878;2023-02-01T06:04:17;99327.25;;;2.05;78.88
50682;BME280;36779;52.168;20.878;2023-02-01T06:06:46;99323.16;;;2.04;78.77
50682;BME280;36779;52.168;20.878;2023-02-01T06:09:17;99323.08;;;2.04;78.81
50682;BME280;36779;52.168;20.878;2023-02-01T06:11:47;99321.44;;;2.05;78.79
50682;BME280;36779;52.168;20.878;2023-02-01T06:14:17;99314.02;;;2.06;78.80
50682;BME280;36779;52.168;20.878;2023-02-01T06:16:50;99311.02;;;2.06;78.68
50682;BME280;36779;52.168;20.878;2023-02-01T06:19:19;99315.16;;;2.07;78.70
50682;BME280;36779;52.168;20.878;2023-02-01T06:21:49;99311.27;;;2.07;78.82
50682;BME280;36779;52.168;20.878;2023-02-01T06:24:18;99307.52;;;2.08;78.78
50682;BME280;36779;52.168;20.878;2023-02-01T06:26:47;99310.64;;;2.06;78.68
50682;BME280;36779;52.168;20.878;2023-02-01T06:29:18;99315.15;;;2.05;78.84
50682;BME280;36779;52.168;20.878;2023-02-01T06:31:47;99312.46;;;2.03;78.82
50682;BME280;36779;52.168;20.878;2023-02-01T06:34:18;99304.32;;;2.02;78.76
50682;BME280;36779;52.168;20.878;2023-02-01T06:36:50;99308.32;;;2.03;78.73
50682;BME280;36779;52.168;20.878;2023-02-01T06:39:22;99311.36;;;2.04;78.87
50682;BME280;36779;52.168;20.878;2023-02-01T06:41:52;99308.85;;;2.06;78.95
50682;BME280;36779;52.168;20.878;2023-02-01T06:44:21;99307.48;;;2.10;78.89
50682;BME280;36779;52.168;20.878;2023-02-01T06:46:50;99307.34;;;2.14;78.88
50682;BME280;36779;52.168;20.878;2023-02-01T06:49:22;99302.95;;;2.18;78.91
50682;BME280;36779;52.168;20.878;2023-02-01T06:51:51;99301.81;;;2.21;78.92
50682;BME280;36779;52.168;20.878;2023-02-01T06:54:21;99297.82;;;2.23;79.01
50682;BME280;36779;52.168;20.878;2023-02-01T06:56:51;99300.27;;;2.23;78.93
50682;BME280;36779;52.168;20.878;2023-02-01T06:59:20;99294.24;;;2.22;78.86
50682;BME280;36779;52.168;20.878;2023-02-01T07:01:51;99301.39;;;2.22;78.98
50682;BME280;36779;52.168;20.878;2023-02-01T07:04:22;99299.70;;;2.23;78.87
50682;BME280;36779;52.168;20.878;2023-02-01T07:06:51;99303.19;;;2.25;78.83
50682;BME280;36779;52.168;20.878;2023-02-01T07:09:21;99305.41;;;2.28;78.99
50682;BME280;36779;52.168;20.878;2023-02-01T07:11:50;99295.34;;;2.31;78.85
50682;BME280;36779;52.168;20.878;2023-02-01T07:14:19;99303.77;;;2.31;78.81
50682;BME280;36779;52.168;20.878;2023-02-01T07:16:49;99303.55;;;2.31;78.79
50682;BME280;36779;52.168;20.878;2023-02-01T07:19:19;99301.63;;;2.31;78.89
50682;BME280;36779;52.168;20.878;2023-02-01T07:21:48;99304.63;;;2.31;78.85
50682;BME280;36779;52.168;20.878;2023-02-01T07:24:17;99304.76;;;2.31;78.83
50682;BME280;36779;52.168;20.878;2023-02-01T07:26:46;99296.25;;;2.32;78.85
50682;BME280;36779;52.168;20.878;2023-02-01T07:29:19;99300.91;;;2.35;78.82
50682;BME280;36779;52.168;20.878;2023-02-01T07:31:54;99303.05;;;2.39;78.88
50682;BME280;36779;52.168;20.878;2023-02-01T07:34:23;99312.31;;;2.43;78.86
50682;BME280;36779;52.168;20.878;2023-02-01T07:36:54;99304.77;;;2.47;78.93
50682;BME280;36779;52.168;20.878;2023-02-01T07:39:23;99308.36;;;2.50;78.91
50682;BME280;36779;52.168;20.878;2023-02-01T07:41:52;99308.41;;;2.51;79.02
50682;BME280;36779;52.168;20.878;2023-02-01T07:44:21;99312.39;;;2.52;78.89
50682;BME280;36779;52.168;20.878;2023-02-01T07:46:51;99315.21;;;2.54;78.99
50682;BME280;36779;52.168;20.878;2023-02-01T07:49:20;99313.64;;;2.55;78.91
50682;BME280;36779;52.168;20.878;2023-02-01T07:51:50;99318.48;;;2.59;78.77
50682;BME280;36779;52.168;20.878;2023-02-01T07:54:21;99315.48;;;2.63;78.92
50682;BME280;36779;52.168;20.878;2023-02-01T07:56:50;99318.31;;;2.66;78.91
50682;BME280;36779;52.168;20.878;2023-02-01T07:59:19;99314.35;;;2.69;78.80
50682;BME280;36779;52.168;20.878;2023-02-01T08:01:51;99308.73;;;2.70;78.77
50682;BME280;36779;52.168;20.878;2023-02-01T08:04:21;99303.98;;;2.69;78.80
50682;BME280;36779;52.168;20.878;2023-02-01T08:06:50;99305.53;;;2.70;78.83
50682;BME280;36779;52.168;20.878;2023-02-01T08:09:18;99304.34;;;2.69;78.93
50682;BME280;36779;52.168;20.878;2023-02-01T08:11:47;99308.86;;;2.70;78.90
50682;BME280;36779;52.168;20.878;2023-02-01T08:14:16;99303.63;;;2.70;78.77
50682;BME280;36779;52.168;20.878;2023-02-01T08:16:45;99303.08;;;2.72;78.89
50682;BME280;36779;52.168;20.878;2023-02-01T08:19:14;99305.55;;;2.74;78.80
50682;BME280;36779;52.168;20.878;2023-02-01T08:21:45;99300.23;;;2.76;78.84
50682;BME280;36779;52.168;20.878;2023-02-01T08:24:17;99303.38;;;2.76;78.78
50682;BME280;36779;52.168;20.878;2023-02-01T08:26:46;99300.28;;;2.77;78.83
50682;BME280;36779;52.168;20.878;2023-02-01T08:29:14;99297.92;;;2.78;78.79
50682;BME280;36779;52.168;20.878;2023-02-01T08:31:46;99301.81;;;2.80;78.83
50682;BME280;36779;52.168;20.878;2023-02-01T08:34:15;99302.25;;;2.83;79.01
50682;BME280;36779;52.168;20.878;2023-02-01T08:36:47;99299.03;;;2.88;78.86
50682;BME280;36779;52.168;20.878;2023-02-01T08:39:16;99304.14;;;2.91;78.76
50682;BME280;36779;52.168;20.878;2023-02-01T08:41:45;99300.60;;;2.95;78.91
50682;BME280;36779;52.168;20.878;2023-02-01T08:44:36;99298.77;;;2.96;78.78
50682;BME280;36779;52.168;20.878;2023-02-01T08:47:05;99298.41;;;2.96;78.84
50682;BME280;36779;52.168;20.878;2023-02-01T08:49:35;99299.95;;;2.96;78.80
50682;BME280;36779;52.168;20.878;2023-02-01T08:52:04;99303.60;;;2.95;78.74
50682;BME280;36779;52.168;20.878;2023-02-01T08:54:45;99305.45;;;2.94;78.77
50682;BME280;36779;52.168;20.878;2023-02-01T08:57:15;99306.79;;;2.95;78.82
50682;BME280;36779;52.168;20.878;2023-02-01T08:59:44;99312.88;;;2.95;78.68
50682;BME280;36779;52.168;20.878;2023-02-01T09:02:14;99315.80;;;2.96;78.64
50682;BME280;36779;52.168;20.878;2023-02-01T09:04:44;99319.34;;;2.99;78.73
50682;BME280;36779;52.168;20.878;2023-02-01T09:07:14;99321.55;;;3.02;78.65
50682;BME280;36779;52.168;20.878;2023-02-01T09:09:46;99315.20;;;3.04;78.86
50682;BME280;36779;52.168;20.878;2023-02-01T09:12:16;99314.85;;;3.06;78.91
50682;BME280;36779;52.168;20.878;2023-02-01T09:14:46;99309.69;;;3.07;78.78
50682;BME280;36779;52.168;20.878;2023-02-01T09:17:15;99316.86;;;3.07;78.80
50682;BME280;36779;52.168;20.878;2023-02-01T09:19:44;99319.25;;;3.08;78.75
50682;BME280;36779;52.168;20.878;2023-02-01T09:22:13;99317.66;;;3.10;78.80
50682;BME280;36779;52.168;20.878;2023-02-01T09:24:45;99316.94;;;3.14;78.82
50682;BME280;36779;52.168;20.878;2023-02-01T09:27:15;99316.85;;;3.19;78.73
50682;BME280;36779;52.168;20.878;2023-02-01T09:29:44;99315.04;;;3.23;78.72
50682;BME280;36779;52.168;20.878;2023-02-01T09:32:12;99307.77;;;3.26;78.76
50682;BME280;36779;52.168;20.878;2023-02-01T09:34:42;99309.87;;;3.30;78.92
50682;BME280;36779;52.168;20.878;2023-02-01T09:37:11;99311.47;;;3.34;78.93
50682;BME280;36779;52.168;20.878;2023-02-01T09:39:41;99309.11;;;3.36;78.94
50682;BME280;36779;52.168;20.878;2023-02-01T09:42:31;99308.75;;;3.38;78.74
50682;BME280;36779;52.168;20.878;2023-02-01T09:45:14;99302.14;;;3.39;78.81
50682;BME280;36779;52.168;20.878;2023-02-01T09:47:52;99302.91;;;3.41;78.64
50682;BME280;36779;52.168;20.878;2023-02-01T09:50:30;99293.67;;;3.44;78.76
50682;BME280;36779;52.168;20.878;2023-02-01T09:53:04;99295.16;;;3.47;78.74
50682;BME280;36779;52.168;20.878;2023-02-01T09:55:39;99292.55;;;3.50;78.70
50682;BME280;36779;52.168;20.878;2023-02-01T09:58:16;99284.27;;;3.58;78.83
50682;BME280;36779;52.168;20.878;2023-02-01T10:00:52;99284.70;;;3.77;79.20
50682;BME280;36779;52.168;20.878;2023-02-01T10:03:24;99288.42;;;3.99;79.22
50682;BME280;36779;52.168;20.878;2023-02-01T10:06:10;99286.44;;;4.15;79.10
50682;BME280;36779;52.168;20.878;2023-02-01T10:08:59;99286.73;;;4.26;78.91
50682;BME280;36779;52.168;20.878;2023-02-01T10:11:42;99288.95;;;4.34;78.79
50682;BME280;36779;52.168;20.878;2023-02-01T10:14:41;99288.56;;;4.34;78.55
50682;BME280;36779;52.168;20.878;2023-02-01T10:17:25;99287.95;;;4.32;78.55
50682;BME280;36779;52.168;20.878;2023-02-01T10:20:09;99296.73;;;4.24;78.25
50682;BME280;36779;52.168;20.878;2023-02-01T10:22:43;99291.70;;;4.16;78.32
50682;BME280;36779;52.168;20.878;2023-02-01T10:25:36;99290.10;;;4.13;78.36
50682;BME280;36779;52.168;20.878;2023-02-01T10:28:11;99286.89;;;4.12;78.41
50682;BME280;36779;52.168;20.878;2023-02-01T10:30:44;99290.32;;;4.12;78.43
50682;BME280;36779;52.168;20.878;2023-02-01T10:33:18;99289.95;;;4.11;78.41
50682;BME280;36779;52.168;20.878;2023-02-01T10:35:55;99293.89;;;4.06;78.29
50682;BME280;36779;52.168;20.878;2023-02-01T10:38:29;99290.25;;;4.02;78.42
50682;BME280;36779;52.168;20.878;2023-02-01T10:41:02;99293.64;;;3.96;78.30
50682;BME280;36779;52.168;20.878;2023-02-01T10:43:31;99293.41;;;3.91;78.30
50682;BME280;36779;52.168;20.878;2023-02-01T10:46:02;99286.82;;;3.88;78.21
50682;BME280;36779;52.168;20.878;2023-02-01T10:48:31;99292.24;;;3.85;78.22
50682;BME280;36779;52.168;20.878;2023-02-01T10:51:11;99292.17;;;3.82;78.16
50682;BME280;36779;52.168;20.878;2023-02-01T10:53:44;99294.82;;;3.80;78.14
50682;BME280;36779;52.168;20.878;2023-02-01T10:56:23;99295.05;;;3.77;78.23
50682;BME280;36779;52.168;20.878;2023-02-01T10:58:52;99291.06;;;3.73;78.31
50682;BME280;36779;52.168;20.878;2023-02-01T11:01:31;99290.14;;;3.70;78.20
50682;BME280;36779;52.168;20.878;2023-02-01T11:04:03;99290.46;;;3.67;78.20
50682;BME280;36779;52.168;20.878;2023-02-01T11:06:35;99282.14;;;3.67;78.35
50682;BME280;36779;52.168;20.878;2023-02-01T11:09:15;99277.38;;;3.71;78.38
50682;BME280;36779;52.168;20.878;2023-02-01T11:11:56;99270.75;;;3.76;78.41
50682;BME280;36779;52.168;20.878;2023-02-01T11:14:35;99273.65;;;3.81;78.42
50682;BME280;36779;52.168;20.878;2023-02-01T11:17:25;99274.13;;;3.96;78.51
50682;BME280;36779;52.168;20.878;2023-02-01T11:19:58;99278.02;;;4.09;78.58
50682;BME280;36779;52.168;20.878;2023-02-01T11:22:29;99272.29;;;4.17;78.45
50682;BME280;36779;52.168;20.878;2023-02-01T11:25:02;99272.33;;;4.19;78.38
50682;BME280;36779;52.168;20.878;2023-02-01T11:27:36;99272.44;;;4.19;78.34
50682;BME280;36779;52.168;20.878;2023-02-01T11:30:31;99273.48;;;4.19;78.42
50682;BME280;36779;52.168;20.878;2023-02-01T11:33:03;99275.85;;;4.24;78.43
50682;BME280;36779;52.168;20.878;2023-02-01T11:35:38;99273.66;;;4.29;78.32
50682;BME280;36779;52.168;20.878;2023-02-01T11:38:19;99270.40;;;4.33;78.39
50682;BME280;36779;52.168;20.878;2023-02-01T11:40:49;99271.63;;;4.42;78.50
50682;BME280;36779;52.168;20.878;2023-02-01T11:43:23;99268.19;;;4.55;78.74
50682;BME280;36779;52.168;20.878;2023-02-01T11:45:57;99262.12;;;4.71;78.75
50682;BME280;36779;52.168;20.878;2023-02-01T11:48:29;99258.39;;;4.90;79.05
50682;BME280;36779;52.168;20.878;2023-02-01T11:51:15;99257.12;;;5.07;78.94
50682;BME280;36779;52.168;20.878;2023-02-01T11:54:14;99255.35;;;5.16;78.84
50682;BME280;36779;52.168;20.878;2023-02-01T11:56:56;99256.31;;;5.29;78.83
50682;BME280;36779;52.168;20.878;2023-02-01T11:59:42;99247.54;;;5.37;78.47
50682;BME280;36779;52.168;20.878;2023-02-01T12:02:49;99248.42;;;5.32;78.17
50682;BME280;36779;52.168;20.878;2023-02-01T12:05:33;99247.83;;;5.24;77.99
50682;BME280;36779;52.168;20.878;2023-02-01T12:08:31;99245.80;;;5.16;77.85
50682;BME280;36779;52.168;20.878;2023-02-01T12:14:09;99248.98;;;4.96;77.78
50682;BME280;36779;52.168;20.878;2023-02-01T12:16:52;99247.57;;;4.87;77.88
50682;BME280;36779;52.168;20.878;2023-02-01T12:19:40;99244.69;;;4.82;77.83
50682;BME280;36779;52.168;20.878;2023-02-01T12:22:23;99247.59;;;4.74;77.68
50682;BME280;36779;52.168;20.878;2023-02-01T12:25:18;99245.48;;;4.63;77.64
50682;BME280;36779;52.168;20.878;2023-02-01T12:28:07;99239.00;;;4.57;77.69
50682;BME280;36779;52.168;20.878;2023-02-01T12:31:01;99239.95;;;4.53;77.76
50682;BME280;36779;52.168;20.878;2023-02-01T12:33:47;99234.88;;;4.47;77.74
50682;BME280;36779;52.168;20.878;2023-02-01T12:36:28;99237.33;;;4.43;77.75
50682;BME280;36779;52.168;20.878;2023-02-01T12:39:07;99238.80;;;4.43;77.88
50682;BME280;36779;52.168;20.878;2023-02-01T12:41:49;99241.23;;;4.41;77.84
50682;BME280;36779;52.168;20.878;2023-02-01T12:44:26;99244.64;;;4.41;77.96
50682;BME280;36779;52.168;20.878;2023-02-01T12:46:59;99238.07;;;4.38;77.84
50682;BME280;36779;52.168;20.878;2023-02-01T12:49:47;99240.83;;;4.33;77.73
50682;BME280;36779;52.168;20.878;2023-02-01T12:52:22;99243.63;;;4.30;77.86
50682;BME280;36779;52.168;20.878;2023-02-01T12:54:59;99242.89;;;4.28;77.91
50682;BME280;36779;52.168;20.878;2023-02-01T12:57:33;99246.81;;;4.30;78.00
50682;BME280;36779;52.168;20.878;2023-02-01T13:00:16;99245.23;;;4.30;77.98
50682;BME280;36779;52.168;20.878;2023-02-01T13:02:57;99250.93;;;4.32;78.21
50682;BME280;36779;52.168;20.878;2023-02-01T13:05:40;99245.52;;;4.41;78.30
50682;BME280;36779;52.168;20.878;2023-02-01T13:08:17;99241.19;;;4.45;78.19
50682;BME280;36779;52.168;20.878;2023-02-01T13:10:53;99247.46;;;4.52;78.24
50682;BME280;36779;52.168;20.878;2023-02-01T13:13:32;99248.30;;;4.56;78.21
50682;BME280;36779;52.168;20.878;2023-02-01T13:16:15;99247.30;;;4.59;78.17
50682;BME280;36779;52.168;20.878;2023-02-01T13:18:50;99251.48;;;4.59;78.21
50682;BME280;36779;52.168;20.878;2023-02-01T13:21:25;99256.43;;;4.57;78.11
50682;BME280;36779;52.168;20.878;2023-02-01T13:23:57;99262.10;;;4.57;78.12
50682;BME280;36779;52.168;20.878;2023-02-01T13:26:28;99264.04;;;4.57;78.09
50682;BME280;36779;52.168;20.878;2023-02-01T13:29:00;99269.14;;;4.51;77.99
50682;BME280;36779;52.168;20.878;2023-02-01T13:31:47;99268.03;;;4.46;77.84
50682;BME280;36779;52.168;20.878;2023-02-01T13:35:03;99265.94;;;4.41;77.93
50682;BME280;36779;52.168;20.878;2023-02-01T13:37:50;99268.85;;;4.32;77.79
50682;BME280;36779;52.168;20.878;2023-02-01T13:40:35;99267.69;;;4.28;77.87
50682;BME280;36779;52.168;20.878;2023-02-01T13:43:11;99269.92;;;4.25;77.86
50682;BME280;36779;52.168;20.878;2023-02-01T13:45:47;99270.74;;;4.18;77.87